This is the latest recevied weather packets stored in our database for station/object KQ7A. If no packets are shown the sender has not sent any weather packets the latest 10 day(s).
| Time | Temp. | Humidity | Pressure | Rain* | Wind** | Luminosity | Snow |
|---|---|---|---|---|---|---|---|
| 1777398886 | 12.22° C | 44% | 1021.1 hPa | 0 mm | - | 933 W/m² | - |
| 1777398583 | 12.78° C | 48% | 1020.9 hPa | 0 mm | - | 929 W/m² | - |
| 1777398279 | 12.78° C | 43% | 1020.8 hPa | 0 mm | - | 934 W/m² | - |
| 1777397977 | 12.22° C | 43% | 1020.8 hPa | 0 mm | - | 907 W/m² | - |
| 1777397673 | 12.78° C | 47% | 1020.9 hPa | 0 mm | - | 881 W/m² | - |
| 1777397369 | 11.67° C | 56% | 1020.8 hPa | 0 mm | - | 856 W/m² | - |
| 1777397066 | 11.67° C | 50% | 1021.2 hPa | 0 mm | - | 842 W/m² | - |
| 1777396762 | 11.11° C | 57% | 1020.8 hPa | 0 mm | - | 824 W/m² | - |
| 1777396454 | 11.11° C | 54% | 1021.1 hPa | 0 mm | - | 813 W/m² | - |
| 1777396151 | 11.11° C | 55% | 1020.9 hPa | 0 mm | - | 787 W/m² | - |
| 1777395847 | 11.11° C | 53% | 1021.1 hPa | 0 mm | - | 769 W/m² | - |
| 1777395542 | 10.56° C | 54% | 1021.2 hPa | 0 mm | - | 742 W/m² | - |
| 1777395239 | 10.56° C | 57% | 1020.9 hPa | 0 mm | - | 727 W/m² | - |
| 1777394937 | 10.56° C | 56% | 1021.2 hPa | 0 mm | - | 712 W/m² | - |
| 1777394632 | 10.56° C | 55% | 1021.1 hPa | 0 mm | - | 687 W/m² | - |
| 1777394328 | 10.56° C | 59% | 1021.2 hPa | 0 mm | - | 684 W/m² | - |
| 1777394025 | 10° C | 58% | 1021.2 hPa | 0 mm | - | 661 W/m² | - |
| 1777393725 | 10° C | 59% | 1020.9 hPa | 0 mm | - | 629 W/m² | - |
| 1777393420 | 10.56° C | 57% | 1021.2 hPa | 0 mm | - | 593 W/m² | - |
| 1777393117 | 9.44° C | 57% | 1021.2 hPa | 0 mm | - | 590 W/m² | - |
| 1777392813 | 10° C | 61% | 1020.9 hPa | 0 mm | - | 556 W/m² | - |
| 1777392509 | 8.89° C | 61% | 1021.2 hPa | 0 mm | - | 526 W/m² | - |
| 1777392205 | 8.89° C | 62% | 1021.2 hPa | 0 mm | - | 474 W/m² | - |
| 1777391900 | 8.89° C | 59% | 1021.1 hPa | 0 mm | - | 415 W/m² | - |
| 1777391595 | 8.89° C | 63% | 1020.9 hPa | 0 mm | - | 398 W/m² | - |
* Rain latest hour (hover to see other rain measurements)
** Current wind speed in m/s (hover to see current wind gust speed)